Time;durP1;ratioP1;P1;durP2;ratioP2;P2;SDS_P1;SDS_P2;PMS_P1;PMS_P2;Temp;Humidity;BMP_temperature;BMP_pressure;BME280_temperature;BME280_humidity;BME280_pressure;Samples;Min_cycle;Max_cycle;Signal;HPM_P1;HPM_P2
2021/08/08 00:01:25;;;;;;;;;;;;;;;19.70;44.50;100007.97;5106004;28;19924;-61
2021/08/08 00:03:54;;;;;;;;;;;;;;;19.85;45.58;100005.94;5106810;28;19974;-61
2021/08/08 00:06:40;;;;;;;;;;;;;;;19.95;45.11;99993.53;5104433;28;20263;-61
2021/08/08 00:09:08;;;;;;;;;;;;;;;19.33;43.13;99992.00;5102173;28;19958;-61
2021/08/08 00:11:36;;;;;;;;;;;;;;;19.01;43.01;99990.78;5103356;28;19939;-61
2021/08/08 00:14:04;;;;;;;;;;;;;;;19.44;44.18;99993.91;5109288;28;20054;-61
2021/08/08 00:16:32;;;;;;;;;;;;;;;19.73;45.17;99988.94;5100736;27;19934;-62
2021/08/08 00:19:00;;;;;;;;;;;;;;;19.88;45.31;99985.09;5104532;28;19989;-61
2021/08/08 00:21:28;;;;;;;;;;;;;;;19.99;45.85;99988.78;5101217;28;20424;-61
2021/08/08 00:23:58;;;;;;;;;;;;;;;19.77;43.54;99994.94;5108270;28;19924;-61
2021/08/08 00:26:26;;;;;;;;;;;;;;;19.16;43.45;99995.97;5103399;28;19966;-60
2021/08/08 00:28:54;;;;;;;;;;;;;;;19.39;44.27;99992.41;5107962;28;19963;-61
2021/08/08 00:31:24;;;;;;;;;;;;;;;19.74;45.28;99993.34;5103576;28;19923;-61
2021/08/08 00:33:56;;;;;;;;;;;;;;;19.93;45.80;99989.25;5107210;28;19949;-61
2021/08/08 00:36:24;;;;;;;;;;;;;;;20.04;45.96;99991.94;5106962;28;19924;-61
2021/08/08 00:38:56;;;;;;;;;;;;;;;19.95;45.22;99980.09;5104934;28;20038;-62
2021/08/08 00:41:27;;;;;;;;;;;;;;;19.44;46.00;99980.50;5104653;28;19951;-61
2021/08/08 00:43:56;;;;;;;;;;;;;;;19.11;44.36;99974.88;5102717;28;19928;-61
2021/08/08 00:46:25;;;;;;;;;;;;;;;19.52;46.22;99954.75;5101973;28;19946;-61
2021/08/08 00:48:53;;;;;;;;;;;;;;;19.80;45.73;99955.28;5102768;28;19952;-60
2021/08/08 00:51:26;;;;;;;;;;;;;;;19.96;46.69;99963.03;5116257;28;19977;-59
2021/08/08 00:53:56;;;;;;;;;;;;;;;20.05;46.00;99962.31;5109270;28;19939;-61
2021/08/08 00:56:28;;;;;;;;;;;;;;;19.61;45.69;99946.97;5099188;28;19924;-57
2021/08/08 00:58:59;;;;;;;;;;;;;;;19.10;44.33;99949.03;5112296;27;19931;-61
2021/08/08 01:01:33;;;;;;;;;;;;;;;19.44;45.89;99956.34;5116996;27;19938;-61
2021/08/08 01:04:05;;;;;;;;;;;;;;;19.77;46.59;99960.06;5112203;27;20039;-61
2021/08/08 01:06:38;;;;;;;;;;;;;;;19.94;46.37;99972.19;5111264;27;19990;-61
2021/08/08 01:09:08;;;;;;;;;;;;;;;20.05;46.37;99972.16;5113306;27;19928;-61
2021/08/08 01:11:40;;;;;;;;;;;;;;;19.68;44.26;99973.19;5108419;27;19936;-61
2021/08/08 01:14:11;;;;;;;;;;;;;;;19.16;43.43;99983.44;5108279;28;20050;-61
2021/08/08 01:16:47;;;;;;;;;;;;;;;19.03;43.91;99980.81;5110357;28;19931;-62
2021/08/08 01:19:18;;;;;;;;;;;;;;;19.55;45.17;99976.00;5113421;27;19927;-61
2021/08/08 01:21:47;;;;;;;;;;;;;;;19.83;45.80;99964.94;5140176;27;19999;-62
2021/08/08 01:24:17;;;;;;;;;;;;;;;19.98;46.36;99981.69;5112932;28;19923;-62
2021/08/08 01:26:46;;;;;;;;;;;;;;;20.06;46.02;99984.63;5111311;27;19969;-62
2021/08/08 01:29:16;;;;;;;;;;;;;;;19.92;44.27;99979.50;5111026;28;20015;-62
2021/08/08 01:31:51;;;;;;;;;;;;;;;19.29;43.53;99977.13;5119728;27;19932;-61
2021/08/08 01:34:22;;;;;;;;;;;;;;;19.21;43.83;99980.41;5108197;28;19938;-59
2021/08/08 01:36:52;;;;;;;;;;;;;;;19.69;46.20;99982.13;5145488;27;19957;-61
2021/08/08 01:39:24;;;;;;;;;;;;;;;19.90;45.75;99993.03;5106199;28;19939;-58
2021/08/08 01:41:56;;;;;;;;;;;;;;;20.02;45.70;99984.00;5108694;28;19928;-61
2021/08/08 01:44:31;;;;;;;;;;;;;;;20.10;46.06;99983.41;5105657;28;19925;-61
2021/08/08 01:47:05;;;;;;;;;;;;;;;19.56;45.36;99991.09;5110175;28;20004;-61
2021/08/08 01:49:34;;;;;;;;;;;;;;;19.29;45.25;99995.91;5107588;28;19951;-61
2021/08/08 01:52:06;;;;;;;;;;;;;;;19.61;46.29;99989.88;5111220;28;19924;-61
2021/08/08 01:54:45;;;;;;;;;;;;;;;19.87;46.40;99988.75;5141204;27;19928;-62
2021/08/08 01:57:19;;;;;;;;;;;;;;;20.02;46.67;99994.72;5125639;27;19935;-61
2021/08/08 01:59:53;;;;;;;;;;;;;;;20.10;47.07;99983.41;5126075;27;19938;-61
2021/08/08 02:02:21;;;;;;;;;;;;;;;19.63;44.69;99983.44;5125249;27;19966;-61
2021/08/08 02:04:59;;;;;;;;;;;;;;;19.11;43.84;99982.94;5109186;28;19932;-61
2021/08/08 02:07:27;;;;;;;;;;;;;;;19.18;44.99;99984.16;5109965;28;19965;-61
2021/08/08 02:09:58;;;;;;;;;;;;;;;19.68;47.24;99993.81;5111144;28;19948;-61
2021/08/08 02:12:28;;;;;;;;;;;;;;;19.91;46.87;99986.69;5112843;28;19924;-62
2021/08/08 02:14:58;;;;;;;;;;;;;;;20.04;46.70;99986.56;5107138;28;19943;-61
2021/08/08 02:17:40;;;;;;;;;;;;;;;20.07;45.50;99986.34;5108117;28;19928;-62
2021/08/08 02:20:10;;;;;;;;;;;;;;;19.35;44.55;99992.75;5105120;28;19932;-62
2021/08/08 02:22:39;;;;;;;;;;;;;;;19.33;44.73;99992.88;5145314;27;19951;-61
2021/08/08 02:25:11;;;;;;;;;;;;;;;19.75;46.06;99995.03;5115644;28;19943;-61
2021/08/08 02:27:40;;;;;;;;;;;;;;;19.96;46.04;99999.75;5108157;28;19997;-62
2021/08/08 02:30:35;;;;;;;;;;;;;;;20.07;46.67;99997.91;5110601;27;19928;-61
2021/08/08 02:33:04;;;;;;;;;;;;;;;19.98;44.77;100000.47;5105134;28;19968;-61
2021/08/08 02:35:36;;;;;;;;;;;;;;;19.21;43.64;100009.88;5109581;28;19932;-61
2021/08/08 02:38:06;;;;;;;;;;;;;;;19.49;44.81;100010.47;5145863;27;20365;-62
2021/08/08 02:40:36;;;;;;;;;;;;;;;19.82;45.96;100006.19;5112589;27;19997;-62
2021/08/08 02:43:08;;;;;;;;;;;;;;;20.01;46.46;100008.28;5103269;28;20023;-62
2021/08/08 02:45:36;;;;;;;;;;;;;;;20.09;46.40;100007.69;5104207;28;19981;-62
2021/08/08 02:48:07;;;;;;;;;;;;;;;19.98;44.11;100003.16;5104363;28;19967;-62
2021/08/08 02:50:36;;;;;;;;;;;;;;;19.23;43.67;100006.13;5107248;28;19925;-61
2021/08/08 02:53:05;;;;;;;;;;;;;;;19.72;45.80;100011.38;5106411;28;19953;-61
2021/08/08 02:55:33;;;;;;;;;;;;;;;19.95;47.12;100006.94;5109599;28;21210;-62
2021/08/08 02:58:04;;;;;;;;;;;;;;;20.07;46.52;100007.81;5107817;28;19931;-63
2021/08/08 03:00:36;;;;;;;;;;;;;;;20.14;46.31;100008.19;5108652;27;19936;-60
2021/08/08 03:03:06;;;;;;;;;;;;;;;19.44;44.19;100000.09;5106143;27;19994;-61
2021/08/08 03:05:36;;;;;;;;;;;;;;;19.45;44.89;99998.25;5106670;28;19927;-62
2021/08/08 03:08:06;;;;;;;;;;;;;;;19.83;46.66;99994.47;5107911;28;19927;-62
2021/08/08 03:10:34;;;;;;;;;;;;;;;20.02;46.89;100008.16;5113102;27;20029;-62
2021/08/08 03:13:02;;;;;;;;;;;;;;;20.12;46.20;100008.31;5138396;27;19924;-61
2021/08/08 03:15:32;;;;;;;;;;;;;;;20.17;46.10;100013.28;5110807;28;19924;-61
2021/08/08 03:18:00;;;;;;;;;;;;;;;19.61;45.77;100009.53;5107900;27;19928;-60
2021/08/08 03:20:28;;;;;;;;;;;;;;;19.63;46.41;100009.41;5106152;28;19925;-62
2021/08/08 03:22:57;;;;;;;;;;;;;;;19.88;46.83;100003.91;5140023;27;19923;-61
2021/08/08 03:25:25;;;;;;;;;;;;;;;20.05;47.27;100007.06;5107574;28;19928;-62
2021/08/08 03:27:53;;;;;;;;;;;;;;;20.14;47.18;100000.13;5106000;28;19970;-60
2021/08/08 03:30:24;;;;;;;;;;;;;;;20.14;46.68;100005.50;5108719;28;19924;-62
2021/08/08 03:32:53;;;;;;;;;;;;;;;19.36;44.50;100005.22;5101768;28;19936;-61
2021/08/08 03:35:22;;;;;;;;;;;;;;;19.16;46.82;100012.06;5124159;27;19938;-61
2021/08/08 03:37:50;;;;;;;;;;;;;;;19.69;47.85;100006.25;5108384;28;20283;-62
2021/08/08 03:40:19;;;;;;;;;;;;;;;19.95;46.97;100006.06;5112085;27;19935;-62
2021/08/08 03:42:48;;;;;;;;;;;;;;;20.07;46.07;100007.81;5108005;27;19968;-61
2021/08/08 03:45:18;;;;;;;;;;;;;;;20.15;47.06;100004.53;5104126;28;19924;-61
2021/08/08 03:47:47;;;;;;;;;;;;;;;19.71;44.68;99996.25;5111403;28;20379;-61
2021/08/08 03:50:17;;;;;;;;;;;;;;;19.19;44.07;99999.28;5118526;27;19931;-61
2021/08/08 03:52:45;;;;;;;;;;;;;;;19.62;46.16;99987.09;5112907;28;19935;-61
2021/08/08 03:55:14;;;;;;;;;;;;;;;19.92;47.35;99982.16;5109766;27;19998;-62
2021/08/08 03:57:41;;;;;;;;;;;;;;;20.06;46.08;99988.16;5109482;28;19947;-61
2021/08/08 04:00:15;;;;;;;;;;;;;;;20.15;46.58;99991.09;5114105;28;19975;-61
2021/08/08 04:02:46;;;;;;;;;;;;;;;19.91;44.65;99989.38;5113883;28;19988;-61
2021/08/08 04:05:21;;;;;;;;;;;;;;;19.29;44.22;99993.22;5144475;27;19923;-61
2021/08/08 04:07:49;;;;;;;;;;;;;;;19.76;46.64;100002.13;5104682;28;19928;-61
2021/08/08 04:10:19;;;;;;;;;;;;;;;20.00;46.64;99999.38;5101051;28;20010;-62
2021/08/08 04:12:48;;;;;;;;;;;;;;;20.13;47.12;100004.66;5106258;28;20015;-61
2021/08/08 04:15:20;;;;;;;;;;;;;;;20.24;49.86;100007.31;5103902;28;19924;-62
2021/08/08 04:17:48;;;;;;;;;;;;;;;20.29;49.29;100008.78;5105684;27;19932;-62
2021/08/08 04:20:18;;;;;;;;;;;;;;;19.78;46.82;100015.41;5103746;28;19928;-60
2021/08/08 04:22:48;;;;;;;;;;;;;;;19.43;46.04;100019.84;5106454;28;19928;-62
2021/08/08 04:25:17;;;;;;;;;;;;;;;19.63;47.27;100009.41;5104278;28;19956;-68
2021/08/08 04:27:45;;;;;;;;;;;;;;;20.00;47.35;100018.19;5103645;28;19946;-65
2021/08/08 04:30:13;;;;;;;;;;;;;;;20.17;48.58;100010.59;5103507;28;19935;-65
2021/08/08 04:32:41;;;;;;;;;;;;;;;20.28;48.53;100017.81;5104726;28;19928;-62
2021/08/08 04:35:11;;;;;;;;;;;;;;;20.20;47.47;100013.91;5121271;27;19959;-68
2021/08/08 04:37:41;;;;;;;;;;;;;;;19.60;45.47;100007.81;5093239;28;19963;-67
2021/08/08 04:40:11;;;;;;;;;;;;;;;19.44;48.18;100015.34;5120062;27;20022;-66
2021/08/08 04:42:40;;;;;;;;;;;;;;;19.25;46.23;100014.03;5109220;28;20039;-62
2021/08/08 04:45:08;;;;;;;;;;;;;;;19.09;46.54;100022.38;5138713;27;19932;-66
2021/08/08 04:47:37;;;;;;;;;;;;;;;19.26;45.32;100013.06;5116126;28;19928;-64
2021/08/08 04:50:07;;;;;;;;;;;;;;;19.28;44.91;100007.59;5105510;28;19956;-64
2021/08/08 04:52:36;;;;;;;;;;;;;;;19.22;44.48;100019.66;5102933;28;19928;-64
2021/08/08 04:55:05;;;;;;;;;;;;;;;19.21;43.83;100021.47;5098182;28;19943;-61
2021/08/08 04:57:35;;;;;;;;;;;;;;;19.57;44.89;100013.44;5104423;28;19924;-60
2021/08/08 05:00:03;;;;;;;;;;;;;;;19.93;45.18;100008.03;5103547;28;20179;-60
2021/08/08 05:02:32;;;;;;;;;;;;;;;20.11;46.92;100011.97;5117230;27;19939;-61
2021/08/08 05:05:00;;;;;;;;;;;;;;;20.22;47.24;100011.09;5100020;28;19939;-61
2021/08/08 05:07:28;;;;;;;;;;;;;;;20.29;46.68;100006.97;5099828;28;19950;-64
2021/08/08 05:09:56;;;;;;;;;;;;;;;19.66;46.40;100011.84;5099537;28;19924;-66
2021/08/08 05:12:24;;;;;;;;;;;;;;;19.26;47.47;100015.75;5099313;28;21300;-66
2021/08/08 05:14:56;;;;;;;;;;;;;;;19.18;47.86;100016.34;5131751;27;19935;-65
2021/08/08 05:17:24;;;;;;;;;;;;;;;19.28;48.09;100015.63;5102940;28;19998;-66
2021/08/08 05:19:52;;;;;;;;;;;;;;;19.10;48.56;100017.91;5099015;28;19935;-64
2021/08/08 05:22:20;;;;;;;;;;;;;;;18.91;48.27;100006.72;5099245;28;19927;-65
2021/08/08 05:24:48;;;;;;;;;;;;;;;19.12;47.63;100010.56;5108434;28;19941;-64
2021/08/08 05:27:16;;;;;;;;;;;;;;;19.15;46.79;100010.38;5100197;28;19984;-59
2021/08/08 05:29:44;;;;;;;;;;;;;;;18.91;49.54;100008.53;5100572;28;19925;-62
2021/08/08 05:32:14;;;;;;;;;;;;;;;19.00;49.71;100007.00;5130170;27;20030;-65
2021/08/08 05:34:43;;;;;;;;;;;;;;;19.60;50.37;100015.88;5118236;27;19928;-60
2021/08/08 05:37:11;;;;;;;;;;;;;;;19.92;50.28;100009.00;5100022;28;19969;-59
2021/08/08 05:39:39;;;;;;;;;;;;;;;20.10;50.11;100006.72;5100372;28;19936;-63
2021/08/08 05:42:06;;;;;;;;;;;;;;;20.19;50.40;100011.34;5095973;28;20258;-64
2021/08/08 05:44:37;;;;;;;;;;;;;;;19.60;48.21;100013.19;5103939;28;19957;-66
2021/08/08 05:47:07;;;;;;;;;;;;;;;19.18;47.82;100018.16;5105433;28;19928;-62
2021/08/08 05:49:37;;;;;;;;;;;;;;;19.02;47.53;100022.00;5109958;28;20557;-63
2021/08/08 05:52:06;;;;;;;;;;;;;;;19.02;49.28;100013.94;5105067;28;19932;-62
2021/08/08 05:54:34;;;;;;;;;;;;;;;18.98;49.25;100019.66;5134661;27;19939;-63
2021/08/08 05:57:02;;;;;;;;;;;;;;;18.94;47.68;100020.84;5103923;28;19931;-63
2021/08/08 05:59:30;;;;;;;;;;;;;;;19.11;47.50;100022.25;5104981;27;20357;-62
2021/08/08 06:01:59;;;;;;;;;;;;;;;18.99;47.06;100019.53;5119769;27;20018;-62
2021/08/08 06:04:27;;;;;;;;;;;;;;;19.04;46.24;100030.78;5105990;28;19924;-62
2021/08/08 06:06:56;;;;;;;;;;;;;;;19.09;45.99;100033.09;5105893;28;19928;-62
2021/08/08 06:09:25;;;;;;;;;;;;;;;18.88;45.92;100032.84;5109565;28;20493;-61
2021/08/08 06:11:53;;;;;;;;;;;;;;;18.75;47.91;100020.34;5104145;28;19928;-60
2021/08/08 06:14:21;;;;;;;;;;;;;;;18.87;48.21;100029.31;5105165;28;19934;-60
2021/08/08 06:16:49;;;;;;;;;;;;;;;19.01;47.21;100022.09;5106332;28;19958;-61
2021/08/08 06:19:17;;;;;;;;;;;;;;;19.58;48.19;100028.56;5102644;28;19957;-62
2021/08/08 06:21:46;;;;;;;;;;;;;;;19.87;47.81;100023.66;5107691;28;19930;-60
2021/08/08 06:24:20;;;;;;;;;;;;;;;20.11;50.33;100027.22;5102899;28;19931;-60
2021/08/08 06:26:48;;;;;;;;;;;;;;;20.20;50.11;100021.13;5101663;28;20627;-61
2021/08/08 06:29:16;;;;;;;;;;;;;;;19.66;47.88;100010.03;5106225;28;19923;-62
2021/08/08 06:31:44;;;;;;;;;;;;;;;19.39;47.14;100013.00;5102844;28;19932;-62
2021/08/08 06:34:12;;;;;;;;;;;;;;;19.39;46.77;100010.31;5106150;28;20606;-61
2021/08/08 06:36:41;;;;;;;;;;;;;;;19.34;47.96;100024.06;5101545;28;19932;-63
2021/08/08 06:39:09;;;;;;;;;;;;;;;19.20;48.18;100017.09;5102605;28;19928;-63
2021/08/08 06:41:38;;;;;;;;;;;;;;;19.22;46.54;100025.00;5105407;28;20201;-64
2021/08/08 06:44:08;;;;;;;;;;;;;;;19.28;46.00;100016.50;5099592;28;19928;-61
2021/08/08 06:46:37;;;;;;;;;;;;;;;19.19;45.34;100018.03;5106404;28;19932;-60
2021/08/08 06:49:06;;;;;;;;;;;;;;;19.16;45.22;100028.13;5107027;27;20030;-60
2021/08/08 06:51:34;;;;;;;;;;;;;;;19.06;45.46;100028.81;5137285;27;20358;-61
2021/08/08 06:54:02;;;;;;;;;;;;;;;19.12;45.23;100030.22;5141103;27;19928;-62
2021/08/08 06:56:30;;;;;;;;;;;;;;;19.08;45.16;100026.03;5104938;27;19938;-60
2021/08/08 06:58:59;;;;;;;;;;;;;;;19.08;46.49;100029.59;5132909;27;19934;-63
2021/08/08 07:01:27;;;;;;;;;;;;;;;19.21;47.04;100028.66;5111602;27;19946;-62
2021/08/08 07:03:56;;;;;;;;;;;;;;;19.34;47.00;100031.28;5104371;27;19954;-60
2021/08/08 07:06:23;;;;;;;;;;;;;;;19.41;46.53;100036.06;5100928;28;20046;-61
2021/08/08 07:08:52;;;;;;;;;;;;;;;19.49;46.47;100043.53;5103621;27;20738;-62
2021/08/08 07:11:21;;;;;;;;;;;;;;;19.54;46.03;100035.97;5138576;27;19928;-61
2021/08/08 07:13:50;;;;;;;;;;;;;;;19.43;46.29;100041.28;5110352;27;19966;-62
2021/08/08 07:16:20;;;;;;;;;;;;;;;19.37;45.99;100041.75;5104044;28;20422;-63
2021/08/08 07:18:48;;;;;;;;;;;;;;;19.36;46.92;100042.75;5105318;28;19956;-63
2021/08/08 07:21:16;;;;;;;;;;;;;;;19.41;50.17;100044.09;5102982;28;19939;-64
2021/08/08 07:23:59;;;;;;;;;;;;;;;19.51;51.12;100038.03;5100943;28;19923;-63
2021/08/08 07:26:28;;;;;;;;;;;;;;;19.59;49.85;100043.66;5131839;27;19932;-60
2021/08/08 07:28:56;;;;;;;;;;;;;;;19.50;50.92;100047.91;5102693;28;19928;-61
2021/08/08 07:31:25;;;;;;;;;;;;;;;19.57;50.91;100041.09;5100899;28;20546;-60
2021/08/08 07:33:54;;;;;;;;;;;;;;;19.65;50.24;100042.34;5134230;27;20023;-61
2021/08/08 07:36:23;;;;;;;;;;;;;;;19.74;50.92;100044.34;5102941;28;19938;-62
2021/08/08 07:38:51;;;;;;;;;;;;;;;19.80;50.55;100043.84;5099932;28;20421;-61
2021/08/08 07:41:19;;;;;;;;;;;;;;;19.78;50.58;100048.47;5102109;28;19923;-59
2021/08/08 07:43:47;;;;;;;;;;;;;;;19.79;52.21;100049.31;5101649;27;19932;-60
2021/08/08 07:46:15;;;;;;;;;;;;;;;19.95;52.51;100055.25;5102110;28;19924;-59
2021/08/08 07:48:47;;;;;;;;;;;;;;;19.87;51.04;100057.66;5102562;28;19959;-58
2021/08/08 07:51:15;;;;;;;;;;;;;;;19.70;51.36;100059.81;5134853;27;19924;-60
2021/08/08 07:53:45;;;;;;;;;;;;;;;19.82;51.05;100059.88;5102241;28;21416;-60
2021/08/08 07:56:13;;;;;;;;;;;;;;;19.84;50.14;100066.84;5099771;28;20018;-60
2021/08/08 07:58:41;;;;;;;;;;;;;;;19.86;50.39;100059.50;5102981;28;19928;-59
2021/08/08 08:01:10;;;;;;;;;;;;;;;19.86;50.17;100072.91;5103797;28;19942;-62
2021/08/08 08:03:38;;;;;;;;;;;;;;;19.90;50.44;100060.13;5107513;28;20460;-62
2021/08/08 08:06:08;;;;;;;;;;;;;;;19.98;51.38;100068.44;5097806;28;19928;-59
2021/08/08 08:08:36;;;;;;;;;;;;;;;20.01;51.31;100081.59;5101910;28;19939;-60
2021/08/08 08:11:04;;;;;;;;;;;;;;;20.03;50.52;100076.16;5117314;27;20003;-60
2021/08/08 08:13:32;;;;;;;;;;;;;;;20.12;49.90;100079.91;5102312;27;19954;-58
2021/08/08 08:16:00;;;;;;;;;;;;;;;20.17;49.77;100086.66;5131079;27;19971;-56
2021/08/08 08:18:28;;;;;;;;;;;;;;;20.27;48.95;100081.41;5100842;28;19936;-58
2021/08/08 08:20:58;;;;;;;;;;;;;;;20.30;49.06;100086.53;5101186;28;20421;-60
2021/08/08 08:23:27;;;;;;;;;;;;;;;20.22;49.78;100079.09;5101924;28;19954;-59
2021/08/08 08:25:55;;;;;;;;;;;;;;;20.36;49.25;100093.25;5106271;28;19962;-62
2021/08/08 08:28:26;;;;;;;;;;;;;;;20.38;48.36;100091.28;5101660;28;20253;-58
2021/08/08 08:30:54;;;;;;;;;;;;;;;20.33;48.63;100097.03;5106022;28;19947;-57
2021/08/08 08:33:22;;;;;;;;;;;;;;;20.38;48.59;100096.66;5102329;28;19958;-60
2021/08/08 08:35:51;;;;;;;;;;;;;;;20.37;48.40;100098.50;5102733;28;20292;-59
2021/08/08 08:38:19;;;;;;;;;;;;;;;20.31;48.05;100098.97;5099555;28;19946;-61
2021/08/08 08:40:49;;;;;;;;;;;;;;;20.36;48.20;100101.31;5099479;28;19928;-59
2021/08/08 08:43:23;;;;;;;;;;;;;;;20.34;49.02;100112.19;5098351;28;19995;-59
2021/08/08 08:45:52;;;;;;;;;;;;;;;20.40;49.14;100121.59;5101324;28;19924;-59
2021/08/08 08:48:21;;;;;;;;;;;;;;;20.32;48.85;100116.81;5101404;28;19957;-61
2021/08/08 08:50:53;;;;;;;;;;;;;;;20.24;48.58;100117.41;5119163;28;19969;-59
2021/08/08 08:53:23;;;;;;;;;;;;;;;20.37;47.37;100111.09;5101815;28;19924;-59
2021/08/08 08:55:54;;;;;;;;;;;;;;;20.55;47.25;100108.75;5105296;28;19934;-53
2021/08/08 08:58:23;;;;;;;;;;;;;;;20.66;47.00;100105.25;5132762;27;19952;-63
2021/08/08 09:00:52;;;;;;;;;;;;;;;20.67;46.43;100112.31;5100815;28;19924;-61
2021/08/08 09:03:20;;;;;;;;;;;;;;;20.75;46.25;100117.97;5120577;28;20299;-64
2021/08/08 09:05:49;;;;;;;;;;;;;;;20.78;46.63;100109.66;5111664;28;19997;-62
2021/08/08 09:08:17;;;;;;;;;;;;;;;20.94;47.29;100120.00;5100317;28;20532;-61
2021/08/08 09:10:46;;;;;;;;;;;;;;;21.00;47.48;100124.03;5105359;28;19938;-60
2021/08/08 09:13:15;;;;;;;;;;;;;;;20.68;46.00;100120.25;5103174;28;19995;-62
2021/08/08 09:15:47;;;;;;;;;;;;;;;20.46;47.30;100130.97;5103745;28;19931;-62
2021/08/08 09:18:21;;;;;;;;;;;;;;;20.36;47.27;100130.88;5110018;28;19932;-61
2021/08/08 09:21:08;;;;;;;;;;;;;;;20.26;47.47;100136.09;5111241;27;19932;-62
2021/08/08 09:23:40;;;;;;;;;;;;;;;20.30;47.96;100131.34;5107181;28;19938;-61
2021/08/08 09:26:08;;;;;;;;;;;;;;;20.40;48.03;100135.00;5123274;27;19978;-58
2021/08/08 09:28:43;;;;;;;;;;;;;;;20.21;46.79;100130.22;5109260;27;19924;-58
2021/08/08 09:31:19;;;;;;;;;;;;;;;20.07;45.86;100136.66;5118837;28;19935;-57
2021/08/08 09:33:48;;;;;;;;;;;;;;;19.89;46.28;100123.66;5119228;28;21659;-58
2021/08/08 09:36:16;;;;;;;;;;;;;;;19.85;45.32;100132.09;5111891;28;19989;-58
2021/08/08 09:38:45;;;;;;;;;;;;;;;19.80;45.58;100131.53;5111342;28;19955;-58
2021/08/08 09:41:24;;;;;;;;;;;;;;;19.79;46.71;100137.88;5112057;28;20320;-56
2021/08/08 09:43:53;;;;;;;;;;;;;;;19.85;46.90;100137.47;5112179;28;19978;-58
2021/08/08 09:46:21;;;;;;;;;;;;;;;19.79;46.58;100133.38;5110200;27;19924;-58
2021/08/08 09:48:49;;;;;;;;;;;;;;;19.75;44.78;100139.94;5109435;28;20371;-58
2021/08/08 09:51:17;;;;;;;;;;;;;;;19.89;44.62;100137.09;5106278;28;19923;-58
2021/08/08 09:53:54;;;;;;;;;;;;;;;19.74;44.72;100148.97;5116827;28;19928;-58
2021/08/08 09:56:24;;;;;;;;;;;;;;;19.79;44.49;100151.28;5106844;28;20035;-58
2021/08/08 09:58:53;;;;;;;;;;;;;;;19.89;45.17;100153.19;5111361;28;19999;-58
2021/08/08 10:01:21;;;;;;;;;;;;;;;19.68;46.38;100152.97;5111179;28;20502;-59
2021/08/08 10:03:49;;;;;;;;;;;;;;;19.82;45.21;100151.97;5114394;28;19996;-59
2021/08/08 10:06:18;;;;;;;;;;;;;;;19.87;44.79;100140.84;5111617;28;19934;-59
2021/08/08 10:08:47;;;;;;;;;;;;;;;19.88;44.10;100147.94;5114028;28;19924;-58
2021/08/08 10:11:17;;;;;;;;;;;;;;;19.92;43.92;100148.56;5104396;28;19967;-58
2021/08/08 10:13:48;;;;;;;;;;;;;;;20.06;43.15;100148.38;5106537;28;19932;-62
2021/08/08 10:16:19;;;;;;;;;;;;;;;19.94;43.78;100143.97;5104660;28;20030;-62
2021/08/08 10:18:53;;;;;;;;;;;;;;;20.10;45.85;100141.78;5106184;28;19932;-61
2021/08/08 10:21:21;;;;;;;;;;;;;;;20.28;46.96;100158.31;5108268;28;19924;-64
2021/08/08 10:23:50;;;;;;;;;;;;;;;20.77;50.36;100161.69;5112248;28;19996;-63
2021/08/08 10:26:18;;;;;;;;;;;;;;;20.32;47.54;100151.72;5107611;28;19942;-62
2021/08/08 10:28:48;;;;;;;;;;;;;;;20.02;48.73;100150.44;5104183;28;19928;-64
2021/08/08 10:31:18;;;;;;;;;;;;;;;19.89;47.88;100147.81;5105078;28;19997;-64
2021/08/08 10:33:47;;;;;;;;;;;;;;;19.83;48.12;100155.50;5104734;28;19932;-63
2021/08/08 10:36:21;;;;;;;;;;;;;;;19.96;47.78;100158.09;5107015;28;20937;-64
2021/08/08 10:38:50;;;;;;;;;;;;;;;20.29;48.51;100145.72;5100009;28;20019;-63
2021/08/08 10:41:18;;;;;;;;;;;;;;;20.60;48.08;100152.25;5102451;28;19932;-58
2021/08/08 10:43:46;;;;;;;;;;;;;;;20.62;47.62;100155.69;5101132;28;19924;-58
2021/08/08 10:46:16;;;;;;;;;;;;;;;20.47;46.82;100157.72;5106210;27;19924;-61
2021/08/08 10:48:46;;;;;;;;;;;;;;;20.59;46.47;100166.66;5103863;28;19927;-63
2021/08/08 10:51:17;;;;;;;;;;;;;;;20.55;46.70;100175.94;5100683;27;19993;-63
2021/08/08 10:53:46;;;;;;;;;;;;;;;20.56;48.29;100164.22;5106497;28;19999;-61
2021/08/08 10:56:14;;;;;;;;;;;;;;;20.55;48.47;100171.44;5103927;28;19939;-58
2021/08/08 10:58:44;;;;;;;;;;;;;;;20.60;49.13;100178.28;5103872;28;19931;-63
2021/08/08 11:01:16;;;;;;;;;;;;;;;20.69;47.74;100180.22;5101064;28;19928;-60
2021/08/08 11:03:52;;;;;;;;;;;;;;;20.65;48.21;100171.53;5104466;28;19988;-59
2021/08/08 11:06:21;;;;;;;;;;;;;;;20.75;47.83;100181.59;5101760;28;20359;-60
2021/08/08 11:08:53;;;;;;;;;;;;;;;21.05;49.85;100186.34;5102361;27;19942;-57
2021/08/08 11:11:22;;;;;;;;;;;;;;;20.93;50.20;100198.09;5103282;27;19939;-58
2021/08/08 11:13:50;;;;;;;;;;;;;;;20.82;49.92;100191.75;5103120;28;19950;-64
2021/08/08 11:16:18;;;;;;;;;;;;;;;20.66;50.32;100194.75;5105623;27;20015;-66
2021/08/08 11:18:55;;;;;;;;;;;;;;;20.44;50.43;100195.56;5104441;28;19953;-68
2021/08/08 11:21:25;;;;;;;;;;;;;;;20.54;50.12;100195.72;5102972;28;19932;-67
2021/08/08 11:23:53;;;;;;;;;;;;;;;20.51;50.22;100199.50;5096961;27;19939;-66
2021/08/08 11:26:21;;;;;;;;;;;;;;;20.79;49.47;100202.75;5098409;27;19940;-66
2021/08/08 11:28:53;;;;;;;;;;;;;;;21.02;49.68;100198.22;5100614;28;20007;-63
2021/08/08 11:31:22;;;;;;;;;;;;;;;21.03;49.29;100205.31;5103139;27;19928;-68
2021/08/08 11:33:56;;;;;;;;;;;;;;;20.99;49.54;100205.69;5099147;28;19935;-61
2021/08/08 11:36:31;;;;;;;;;;;;;;;21.09;48.44;100205.78;5099604;27;21388;-61
2021/08/08 11:39:00;;;;;;;;;;;;;;;21.26;49.37;100197.19;5102126;27;19939;-63
2021/08/08 11:41:29;;;;;;;;;;;;;;;21.10;48.70;100207.50;5098785;28;19966;-66
2021/08/08 11:44:04;;;;;;;;;;;;;;;21.02;48.54;100218.88;5106402;27;19928;-60
2021/08/08 11:46:32;;;;;;;;;;;;;;;21.05;47.08;100222.19;5102812;28;19923;-60
2021/08/08 11:49:11;;;;;;;;;;;;;;;20.95;47.82;100215.81;5101040;27;19928;-60
2021/08/08 11:51:40;;;;;;;;;;;;;;;20.69;48.59;100221.41;5098929;28;19923;-62
2021/08/08 11:54:09;;;;;;;;;;;;;;;20.70;47.99;100219.59;5099024;27;19936;-68
2021/08/08 11:56:37;;;;;;;;;;;;;;;20.70;47.64;100228.50;5103710;27;19932;-69
2021/08/08 11:59:25;;;;;;;;;;;;;;;20.86;47.32;100227.31;5100224;28;19978;-66
2021/08/08 12:01:57;;;;;;;;;;;;;;;20.83;47.24;100224.88;5103003;28;20645;-67
2021/08/08 12:04:32;;;;;;;;;;;;;;;21.14;47.08;100230.47;5102427;27;19924;-68
2021/08/08 12:07:02;;;;;;;;;;;;;;;21.20;46.92;100220.09;5096413;27;19985;-66
2021/08/08 12:09:30;;;;;;;;;;;;;;;21.28;47.27;100232.91;5100622;28;19935;-68
2021/08/08 12:11:59;;;;;;;;;;;;;;;21.05;47.61;100240.13;5103401;27;19939;-69
2021/08/08 12:14:31;;;;;;;;;;;;;;;20.84;48.45;100250.75;5099781;27;19949;-68
2021/08/08 12:17:00;;;;;;;;;;;;;;;20.79;48.38;100253.81;5100870;28;19976;-65
2021/08/08 12:19:28;;;;;;;;;;;;;;;20.67;49.40;100263.66;5098708;28;19949;-62
2021/08/08 12:22:02;;;;;;;;;;;;;;;20.71;49.11;100269.66;5100530;27;19932;-66
2021/08/08 12:24:34;;;;;;;;;;;;;;;20.59;49.29;100273.28;5102972;28;19938;-65
2021/08/08 12:27:03;;;;;;;;;;;;;;;20.75;49.34;100278.34;5099507;28;20032;-64
2021/08/08 12:29:32;;;;;;;;;;;;;;;20.85;49.49;100276.66;5096217;28;19957;-62
2021/08/08 12:32:21;;;;;;;;;;;;;;;20.71;50.09;100272.34;5098571;27;21842;-60
2021/08/08 12:34:50;;;;;;;;;;;;;;;20.88;51.73;100276.41;5098849;28;19932;-57
2021/08/08 12:37:22;;;;;;;;;;;;;;;21.03;52.51;100269.00;5096323;27;19928;-59
2021/08/08 12:39:50;;;;;;;;;;;;;;;21.09;53.26;100281.97;5098487;28;20003;-61
2021/08/08 12:42:19;;;;;;;;;;;;;;;21.22;54.38;100279.13;5096538;28;19928;-58
2021/08/08 12:44:48;;;;;;;;;;;;;;;21.33;54.96;100279.13;5096879;28;19938;-59
2021/08/08 12:47:26;;;;;;;;;;;;;;;21.49;55.21;100283.28;5111107;27;19959;-58
2021/08/08 12:49:54;;;;;;;;;;;;;;;21.65;54.79;100286.47;5095675;28;19928;-60
2021/08/08 12:52:23;;;;;;;;;;;;;;;21.62;54.10;100285.88;5100372;28;20631;-60